Time;durP1;ratioP1;P1;durP2;ratioP2;P2;SDS_P1;SDS_P2;PMS_P1;PMS_P2;Temp;Humidity;BMP_temperature;BMP_pressure;BME280_temperature;BME280_humidity;BME280_pressure;Samples;Min_cycle;Max_cycle;Signal;HPM_P1;HPM_P2
2022/10/03 00:00:12;;;;;;;4.95;1.90;;;;;;;25.49;29.84;97900.13;5056155;28;20040;-79
2022/10/03 00:03:15;;;;;;;4.60;1.98;;;;;;;25.91;29.21;97893.97;5054810;28;20067;-78
2022/10/03 00:05:50;;;;;;;1.60;1.23;;;;;;;26.44;28.78;97897.09;5065757;28;20402;-79
2022/10/03 00:08:50;;;;;;;2.25;1.10;;;;;;;26.46;28.51;97891.78;5049818;28;20063;-79
2022/10/03 00:11:33;;;;;;;2.88;1.48;;;;;;;26.64;28.39;97880.69;5054333;28;20041;-79
2022/10/03 00:14:33;;;;;;;1.92;1.25;;;;;;;25.78;29.48;97896.03;5046293;28;20798;-78
2022/10/03 00:17:03;;;;;;;3.72;1.38;;;;;;;26.66;28.04;97900.72;5035543;28;20122;-78
2022/10/03 00:19:50;;;;;;;4.15;1.20;;;;;;;25.76;29.43;97898.50;5053384;28;20048;-78
2022/10/03 00:22:24;;;;;;;3.17;1.20;;;;;;;26.05;28.79;97898.34;5049165;28;20044;-78
2022/10/03 00:25:02;;;;;;;1.40;1.13;;;;;;;26.49;28.55;97896.50;5049123;28;20433;-77
2022/10/03 00:27:28;;;;;;;2.30;1.27;;;;;;;25.99;28.26;97900.97;5039156;28;20494;-77
2022/10/03 00:30:12;;;;;;;2.05;0.98;;;;;;;25.94;28.98;97901.53;5050536;28;20082;-78
2022/10/03 00:32:47;;;;;;;3.38;1.27;;;;;;;25.77;29.45;97908.50;5048263;28;20052;-78
2022/10/03 00:35:28;;;;;;;2.85;1.17;;;;;;;24.78;30.75;97907.81;5049382;28;20037;-78
2022/10/03 00:38:14;;;;;;;2.58;1.45;;;;;;;24.27;32.22;97908.75;5052458;28;20035;-80
2022/10/03 00:41:01;;;;;;;4.63;1.17;;;;;;;25.15;30.51;97907.16;5050195;28;20068;-78
2022/10/03 00:44:05;;;;;;;5.57;1.92;;;;;;;24.67;30.33;97907.25;5049914;28;20055;-78
2022/10/03 00:46:49;;;;;;;4.85;1.55;;;;;;;24.44;31.31;97904.66;5051922;28;20045;-77
2022/10/03 00:50:11;;;;;;;2.85;1.60;;;;;;;25.01;30.35;97910.38;5065553;28;20093;-78
2022/10/03 00:53:09;;;;;;;4.38;1.83;;;;;;;25.08;30.08;97898.13;4983168;28;20141;-78
2022/10/03 00:55:52;;;;;;;4.13;1.50;;;;;;;24.96;30.30;97910.91;4982476;28;20058;-78
2022/10/03 00:59:01;;;;;;;3.55;1.92;;;;;;;25.00;29.89;97897.53;5044215;28;20055;-78
2022/10/03 01:01:27;;;;;;;2.13;1.52;;;;;;;25.72;28.85;97899.84;5061326;28;20090;-78
2022/10/03 01:04:04;;;;;;;5.82;1.58;;;;;;;25.70;28.96;97900.28;5049585;28;20040;-78
2022/10/03 01:06:48;;;;;;;3.05;1.30;;;;;;;25.53;29.50;97893.19;5066462;28;20036;-78
2022/10/03 01:09:21;;;;;;;2.22;1.20;;;;;;;25.33;29.40;97890.53;5062220;28;20063;-79
2022/10/03 01:12:00;;;;;;;2.10;1.30;;;;;;;26.02;28.47;97893.66;5067088;28;20389;-78
2022/10/03 01:14:57;;;;;;;2.17;1.52;;;;;;;26.18;28.42;97895.56;5047595;28;20072;-78
2022/10/03 01:17:47;;;;;;;3.95;1.60;;;;;;;26.37;27.78;97898.09;5049414;28;20049;-79
2022/10/03 01:20:25;;;;;;;2.63;1.30;;;;;;;26.50;28.30;97890.41;5061117;28;20035;-78
2022/10/03 01:23:00;;;;;;;2.70;1.20;;;;;;;26.43;27.60;97887.84;5066468;28;20032;-78
2022/10/03 01:25:39;;;;;;;2.17;1.08;;;;;;;26.43;27.91;97881.44;5061541;28;20055;-78
2022/10/03 01:31:15;;;;;;;1.85;1.30;;;;;;;26.29;28.03;97876.28;5061867;28;20047;-79
2022/10/03 01:33:53;;;;;;;2.42;1.17;;;;;;;26.89;27.02;97874.97;5066774;28;20520;-78
2022/10/03 01:36:38;;;;;;;2.50;1.00;;;;;;;26.17;28.17;97872.25;5065601;28;20036;-78
2022/10/03 01:39:17;;;;;;;2.15;1.30;;;;;;;26.01;28.24;97873.16;5065346;28;20431;-78
2022/10/03 01:42:07;;;;;;;1.77;1.10;;;;;;;26.42;27.71;97880.63;5068499;28;20052;-78
2022/10/03 01:45:00;;;;;;;2.67;1.08;;;;;;;27.34;26.64;97864.00;5063684;28;20032;-78
2022/10/03 01:47:37;;;;;;;1.58;1.13;;;;;;;27.26;26.51;97867.53;5066539;28;20033;-78
2022/10/03 01:50:20;;;;;;;5.53;1.40;;;;;;;26.58;27.77;97860.75;5059950;28;20051;-77
2022/10/03 01:53:13;;;;;;;2.17;1.30;;;;;;;26.71;27.44;97871.97;5058425;28;20035;-77
2022/10/03 01:56:02;;;;;;;1.48;1.05;;;;;;;26.88;27.21;97864.97;5071078;28;20072;-77
2022/10/03 01:58:44;;;;;;;1.65;0.90;;;;;;;27.27;26.86;97860.66;5066176;28;20470;-78
2022/10/03 02:01:38;;;;;;;1.95;1.10;;;;;;;27.38;26.69;97869.50;5057932;28;20053;-78
2022/10/03 02:04:19;;;;;;;1.60;1.20;;;;;;;27.00;26.81;97858.44;5049273;28;20082;-78
2022/10/03 02:07:11;;;;;;;2.70;1.52;;;;;;;26.64;27.76;97873.03;5064747;28;20048;-77
2022/10/03 02:09:56;;;;;;;2.83;1.30;;;;;;;26.77;27.76;97878.63;5045491;28;20020;-77
2022/10/03 02:12:28;;;;;;;4.22;1.67;;;;;;;25.17;31.15;97870.97;5063215;28;20048;-77
2022/10/03 02:15:20;;;;;;;2.47;1.60;;;;;;;25.67;29.47;97872.28;5066381;28;20032;-77
2022/10/03 02:17:57;;;;;;;4.57;1.70;;;;;;;26.37;28.46;97866.38;5047594;28;20077;-77
2022/10/03 02:20:33;;;;;;;3.45;1.48;;;;;;;26.96;27.71;97877.53;5040307;28;20093;-77
2022/10/03 02:22:59;;;;;;;3.67;1.50;;;;;;;26.70;27.90;97887.28;5055367;28;20032;-77
2022/10/03 02:26:04;;;;;;;2.92;1.85;;;;;;;26.23;28.23;97884.53;5063651;28;20029;-77
2022/10/03 02:28:49;;;;;;;3.75;1.60;;;;;;;25.67;29.39;97877.91;5067428;28;20044;-77
2022/10/03 02:31:48;;;;;;;6.18;1.80;;;;;;;24.90;30.49;97881.75;5058822;28;20033;-77
2022/10/03 02:34:27;;;;;;;4.72;1.70;;;;;;;25.35;29.95;97887.28;5063127;28;20086;-77
2022/10/03 02:37:19;;;;;;;5.75;1.92;;;;;;;24.67;31.09;97882.78;5063365;28;20043;-77
2022/10/03 02:39:54;;;;;;;4.28;1.83;;;;;;;25.09;30.19;97886.44;5068768;28;20047;-77
2022/10/03 02:42:56;;;;;;;5.20;1.83;;;;;;;24.40;31.52;97889.94;5063332;28;20041;-77
2022/10/03 02:46:05;;;;;;;5.60;1.85;;;;;;;24.68;31.10;97878.75;5055414;28;20071;-77
2022/10/03 02:48:58;;;;;;;1.50;1.40;;;;;;;24.76;30.76;97892.59;5066028;28;20043;-76
2022/10/03 02:51:24;;;;;;;3.17;2.22;;;;;;;24.69;31.50;97891.53;5060230;28;20406;-77
2022/10/03 02:54:05;;;;;;;4.68;2.50;;;;;;;24.92;30.44;97886.97;5046298;28;20062;-76
2022/10/03 02:57:09;;;;;;;2.33;2.13;;;;;;;25.48;29.92;97873.28;5061768;28;20037;-76
2022/10/03 03:00:05;;;;;;;4.03;1.90;;;;;;;25.34;29.77;97863.22;5060092;28;20040;-77
2022/10/03 03:03:02;;;;;;;2.90;1.75;;;;;;;25.56;29.59;97866.19;5060509;28;20161;-78
2022/10/03 03:06:19;;;;;;;1.83;1.27;;;;;;;25.73;29.08;97864.84;5067155;28;20406;-78
2022/10/03 03:09:11;;;;;;;8.30;1.70;;;;;;;25.22;29.74;97876.03;4991463;28;21057;-78
2022/10/03 03:12:08;;;;;;;2.72;1.45;;;;;;;25.02;30.30;97880.25;5047569;28;20040;-78
2022/10/03 03:14:53;;;;;;;5.32;1.90;;;;;;;25.12;30.12;97874.31;5059180;28;20040;-78
2022/10/03 03:17:36;;;;;;;3.78;2.20;;;;;;;25.60;29.71;97870.47;5057743;28;20047;-79
2022/10/03 03:20:10;;;;;;;2.35;1.15;;;;;;;25.58;29.65;97866.53;5063695;28;20039;-78
2022/10/03 03:23:24;;;;;;;2.63;1.73;;;;;;;25.50;29.94;97871.59;5058629;28;20040;-76
2022/10/03 03:26:07;;;;;;;3.70;1.60;;;;;;;25.75;29.29;97860.34;5034599;28;20142;-77
2022/10/03 03:29:07;;;;;;;4.18;1.67;;;;;;;26.02;29.21;97857.84;5048018;28;20036;-77
2022/10/03 03:32:02;;;;;;;2.53;1.58;;;;;;;26.22;28.81;97868.06;5049133;28;20482;-77
2022/10/03 03:34:37;;;;;;;5.57;1.70;;;;;;;25.03;31.03;97871.38;5052310;28;20028;-79
2022/10/03 03:37:21;;;;;;;5.65;1.88;;;;;;;25.33;30.35;97865.25;5051455;28;20045;-78
2022/10/03 03:40:13;;;;;;;5.65;1.95;;;;;;;24.73;30.83;97847.34;5048291;28;20048;-78
2022/10/03 03:42:54;;;;;;;5.78;1.83;;;;;;;25.13;30.67;97861.84;5044209;28;20119;-77
2022/10/03 03:45:28;;;;;;;;;;;;;;;25.73;29.44;97853.59;5048193;28;20498;-78
2022/10/03 03:48:11;;;;;;;2.30;1.75;;;;;;;24.83;30.78;97861.53;5045465;28;19924;-78
2022/10/03 03:50:37;;;;;;;5.35;1.55;;;;;;;24.91;30.72;97855.28;5046774;28;20033;-78
2022/10/03 03:53:18;;;;;;;3.92;1.60;;;;;;;24.93;31.04;97860.44;5031219;28;20041;-78
2022/10/03 03:55:59;;;;;;;3.85;1.50;;;;;;;25.66;29.82;97867.88;5051803;28;20519;-78
2022/10/03 03:58:45;;;;;;;3.70;1.50;;;;;;;24.10;32.61;97862.28;5052520;28;20089;-78
2022/10/03 04:01:31;;;;;;;8.02;2.00;;;;;;;24.95;30.37;97855.94;5052469;28;21138;-78
2022/10/03 04:04:11;;;;;;;1.55;1.20;;;;;;;24.77;30.81;97847.25;5050872;28;20383;-78
2022/10/03 04:07:12;;;;;;;2.40;1.23;;;;;;;24.60;31.28;97856.91;5033983;28;20506;-78
2022/10/03 04:09:58;;;;;;;4.35;1.60;;;;;;;24.62;31.00;97855.25;5027147;28;20109;-78
2022/10/03 04:12:52;;;;;;;5.78;1.98;;;;;;;24.64;30.89;97843.59;5047662;28;20042;-77
2022/10/03 04:15:38;;;;;;;2.17;1.27;;;;;;;25.23;30.15;97843.88;5063521;28;20040;-78
2022/10/03 04:21:57;;;;;;;4.65;1.58;;;;;;;24.87;30.93;97846.16;5065400;28;20103;-78
2022/10/03 04:24:42;;;;;;;3.70;1.20;;;;;;;24.53;32.01;97859.91;4963410;28;20039;-76
2022/10/03 04:27:48;;;;;;;3.78;1.58;;;;;;;25.14;30.99;97857.78;5065817;28;20490;-77
2022/10/03 04:30:41;;;;;;;3.65;1.50;;;;;;;25.21;30.48;97849.16;5065970;28;20398;-77
2022/10/03 04:33:15;;;;;;;6.75;2.10;;;;;;;24.58;31.51;97853.78;5058204;28;20040;-78
2022/10/03 04:36:26;;;;;;;6.53;1.70;;;;;;;24.98;30.88;97852.25;5060132;28;20036;-79
2022/10/03 04:39:08;;;;;;;;;;;;;;;24.38;31.86;97859.53;5062370;28;20033;-78
2022/10/03 04:41:43;;;;;;;;;;;;;;;24.89;30.90;97854.94;5065093;28;20388;-78
2022/10/03 04:44:29;;;;;;;;;;;;;;;25.57;29.89;97864.97;5075372;28;19913;-78
2022/10/03 04:46:57;;;;;;;;;;;;;;;24.96;30.49;97851.91;5073164;28;20374;-79
2022/10/03 04:49:31;;;;;;;;;;;;;;;24.94;30.70;97847.97;5064201;28;19917;-79
2022/10/03 04:51:57;;;;;;;;;;;;;;;25.65;29.50;97853.03;5069825;28;19920;-78
2022/10/03 04:54:27;;;;;;;;;;;;;;;25.20;30.26;97860.84;5064268;28;19985;-78
2022/10/03 04:56:52;;;;;;;;;;;;;;;25.64;29.90;97859.91;5071916;28;19928;-77
2022/10/03 04:59:31;;;;;;;;;;;;;;;24.94;30.52;97857.19;5037188;28;19917;-79
2022/10/03 05:02:02;;;;;;;;;;;;;;;25.33;30.34;97851.19;5060897;28;19920;-79
2022/10/03 05:04:37;;;;;;;;;;;;;;;24.61;31.40;97858.50;5062533;28;19999;-79
2022/10/03 05:07:13;;;;;;;;;;;;;;;24.33;32.15;97865.69;5055997;28;19921;-78
2022/10/03 05:09:48;;;;;;;;;;;;;;;24.95;30.85;97855.19;5054821;28;19912;-78
2022/10/03 05:12:19;;;;;;;;;;;;;;;25.31;30.30;97861.31;5064836;28;20348;-78
2022/10/03 05:14:56;;;;;;;;;;;;;;;25.43;30.27;97852.09;5059156;28;19917;-79
2022/10/03 05:17:36;;;;;;;;;;;;;;;24.48;31.63;97857.69;5054603;28;19924;-79
2022/10/03 05:20:25;;;;;;;;;;;;;;;25.19;30.70;97865.69;5036912;28;20057;-79
2022/10/03 05:23:00;;;;;;;;;;;;;;;24.92;31.04;97861.69;5062112;28;19916;-78
2022/10/03 05:25:45;;;;;;;;;;;;;;;24.43;31.74;97867.41;5074745;28;19912;-79
2022/10/03 05:28:37;;;;;;;;;;;;;;;24.82;31.13;97848.72;5074304;28;19962;-78
2022/10/03 05:31:16;;;;;;;;;;;;;;;25.43;30.29;97854.91;5064933;28;19913;-80
2022/10/03 05:33:45;;;;;;;;;;;;;;;25.06;30.87;97864.09;5069613;28;19947;-79
2022/10/03 05:36:11;;;;;;;;;;;;;;;25.49;30.43;97864.38;5074215;28;19978;-78
2022/10/03 05:38:40;;;;;;;;;;;;;;;25.91;29.53;97868.66;5074278;28;19940;-78
2022/10/03 05:41:15;;;;;;;;;;;;;;;25.60;29.99;97869.69;5072073;28;19924;-78
2022/10/03 05:43:41;;;;;;;;;;;;;;;25.41;30.52;97863.78;5063624;28;20392;-79
2022/10/03 05:46:10;;;;;;;;;;;;;;;25.17;30.58;97861.75;5054493;28;19920;-79
2022/10/03 05:48:54;;;;;;;;;;;;;;;25.34;30.66;97864.00;5068959;28;19920;-82
2022/10/03 05:51:32;;;;;;;;;;;;;;;24.84;30.88;97874.34;5073281;28;19962;-80
2022/10/03 05:54:09;;;;;;;;;;;;;;;24.80;31.25;97871.66;5074527;28;19912;-81
2022/10/03 05:56:53;;;;;;;;;;;;;;;22.96;33.68;97877.28;5072482;28;19912;-81
2022/10/03 05:59:29;;;;;;;;;;;;;;;22.15;35.93;97887.94;5054096;28;19913;-80
2022/10/03 06:02:25;;;;;;;;;;;;;;;22.85;34.69;97877.47;5057742;28;19958;-81
2022/10/03 06:05:01;;;;;;;;;;;;;;;24.22;32.42;97879.19;5070733;28;20370;-80
2022/10/03 06:07:46;;;;;;;;;;;;;;;24.61;31.54;97892.19;5060786;28;19927;-80
2022/10/03 06:10:14;;;;;;;;;;;;;;;24.81;31.21;97895.66;5073467;28;20017;-82
2022/10/03 06:12:59;;;;;;;;;;;;;;;24.38;31.96;97898.03;5073823;28;19912;-80
2022/10/03 06:15:38;;;;;;;;;;;;;;;24.62;31.55;97907.81;5053762;28;19919;-79
2022/10/03 06:18:16;;;;;;;;;;;;;;;25.22;30.47;97883.66;5064642;28;19961;-79
2022/10/03 06:20:45;;;;;;;;;;;;;;;24.98;31.11;97900.00;5071356;28;20007;-79
2022/10/03 06:23:31;;;;;;;;;;;;;;;24.82;31.05;97911.31;5059666;28;19967;-79
2022/10/03 06:25:57;;;;;;;;;;;;;;;24.59;31.17;97920.72;5054033;28;20275;-79
2022/10/03 06:28:45;;;;;;;;;;;;;;;23.68;32.85;97917.34;5067140;28;19927;-79
2022/10/03 06:31:23;;;;;;;;;;;;;;;23.87;32.75;97917.31;5063181;28;19919;-80
2022/10/03 06:33:59;;;;;;;;;;;;;;;23.87;32.54;97920.09;5072666;28;19912;-79
2022/10/03 06:36:43;;;;;;;;;;;;;;;24.64;31.13;97937.00;5073360;28;20388;-79
2022/10/03 06:39:18;;;;;;;;;;;;;;;23.65;32.70;97926.63;5067806;28;20340;-79
2022/10/03 06:41:56;;;;;;;;;;;;;;;24.18;31.99;97931.78;5064867;28;19916;-79
2022/10/03 06:44:41;;;;;;;;;;;;;;;25.03;30.38;97927.56;5071412;28;19962;-79
2022/10/03 06:47:20;;;;;;;;;;;;;;;25.45;29.64;97924.78;5072916;28;19912;-79
2022/10/03 06:49:48;;;;;;;;;;;;;;;24.11;31.13;97922.78;5065842;28;20027;-79
2022/10/03 06:52:34;;;;;;;;;;;;;;;23.88;31.84;97929.28;5072220;28;20320;-79
2022/10/03 06:55:21;;;;;;;;;;;;;;;23.70;32.49;97937.31;5042691;28;20366;-79
2022/10/03 06:58:06;;;;;;;;;;;;;;;24.32;31.34;97927.84;5040861;28;19913;-78
2022/10/03 07:00:53;;;;;;;;;;;;;;;25.38;29.60;97926.53;5052772;28;20007;-79
2022/10/03 07:03:29;;;;;;;;;;;;;;;24.94;30.01;97933.03;5051993;28;19955;-79
2022/10/03 07:06:04;;;;;;;;;;;;;;;24.72;30.35;97924.38;5068833;28;19916;-78
2022/10/03 07:08:52;;;;;;;;;;;;;;;25.26;29.73;97899.19;5073135;28;19916;-79
2022/10/03 07:11:28;;;;;;;;;;;;;;;25.31;29.47;97911.91;5053698;28;19971;-79
2022/10/03 07:13:56;;;;;;;;;;;;;;;25.66;29.08;97929.75;5053773;28;19913;-80
2022/10/03 07:16:28;;;;;;;;;;;;;;;25.01;29.83;97913.16;5034853;28;19916;-80
2022/10/03 07:18:54;;;;;;;;;;;;;;;24.93;30.21;97922.22;5054372;28;20007;-79
2022/10/03 07:21:20;;;;;;;;;;;;;;;24.52;30.57;97934.16;5070509;28;20050;-79
2022/10/03 07:23:49;;;;;;;;;;;;;;;24.58;30.37;97904.28;5053240;28;19920;-80
2022/10/03 07:26:34;;;;;;;;;;;;;;;24.26;31.20;97940.81;5053345;28;19912;-80
2022/10/03 07:29:16;;;;;;;;;;;;;;;24.16;31.26;97933.44;5057277;28;19925;-79
2022/10/03 07:31:58;;;;;;;;;;;;;;;24.69;30.50;97935.72;5057555;28;19958;-79
2022/10/03 07:34:40;;;;;;;;;;;;;;;24.18;31.33;97933.81;5055788;28;19920;-78
2022/10/03 07:40:15;;;;;;;;;;;;;;;24.17;31.00;97933.03;5063470;28;19961;-79
2022/10/03 07:42:45;;;;;;;;;;;;;;;24.70;30.51;97931.66;5065719;28;19970;-79
2022/10/03 07:45:33;;;;;;;;;;;;;;;24.46;31.05;97935.88;5075105;28;19912;-78
2022/10/03 07:48:12;;;;;;;;;;;;;;;24.16;31.32;97927.84;5071417;28;20374;-78
2022/10/03 07:50:44;;;;;;;;;;;;;;;24.44;31.14;97929.94;5056486;28;19920;-78
2022/10/03 07:53:25;;;;;;;;;;;;;;;23.86;32.03;97935.34;5055663;28;19916;-78
2022/10/03 07:55:51;;;;;;;;;;;;;;;24.29;31.64;97931.53;5054231;28;19944;-78
2022/10/03 07:58:25;;;;;;;;;;;;;;;24.81;30.34;97940.59;5076346;28;19912;-78
2022/10/03 08:01:05;;;;;;;;;;;;;;;24.17;31.31;97940.66;5073270;28;19916;-78
2022/10/03 08:03:43;;;;;;;;;;;;;;;24.20;31.49;97928.56;5073736;28;19920;-79
2022/10/03 08:06:14;;;;;;;;;;;;;;;24.21;31.24;97932.94;5075566;28;19927;-78
2022/10/03 08:08:54;;;;;;;;;;;;;;;24.16;31.42;97933.44;5076042;28;19912;-78
2022/10/03 08:11:34;;;;;;;;;;;;;;;24.32;31.50;97931.44;5075441;28;19947;-78
2022/10/03 08:14:18;;;;;;;;;;;;;;;24.04;31.77;97930.09;5060411;28;19920;-78
2022/10/03 08:17:02;;;;;;;;;;;;;;;24.70;30.74;97932.44;5055551;28;19995;-78
2022/10/03 08:19:51;;;;;;;;;;;;;;;23.63;33.11;97937.47;5057250;28;20003;-78
2022/10/03 08:22:20;;;;;;;;;;;;;;;24.64;30.74;97922.97;5055229;28;20337;-79
2022/10/03 08:24:58;;;;;;;;;;;;;;;24.48;31.18;97933.47;5056009;28;19971;-80
2022/10/03 08:27:36;;;;;;;;;;;;;;;24.59;30.79;97939.56;5059957;28;19967;-80
2022/10/03 08:30:03;;;;;;;;;;;;;;;24.53;30.78;97936.50;5063185;28;19916;-82
2022/10/03 08:32:34;;;;;;;;;;;;;;;25.06;30.47;97923.06;5054126;28;20289;-81
2022/10/03 08:35:18;;;;;;;;;;;;;;;24.54;30.96;97931.69;5066344;28;19916;-81
2022/10/03 08:37:55;;;;;;;;;;;;;;;25.73;30.02;97919.06;5072151;28;20325;-80
2022/10/03 08:40:28;;;;;;;;;;;;;;;26.04;29.09;97922.88;5058066;28;19926;-79
2022/10/03 08:43:03;;;;;;;;;;;;;;;24.92;30.49;97929.09;5067494;28;19962;-79
2022/10/03 08:45:44;;;;;;;;;;;;;;;24.49;30.97;97933.00;5059281;28;20007;-80
2022/10/03 08:48:28;;;;;;;;;;;;;;;24.57;31.02;97936.44;5061745;28;19931;-80
2022/10/03 08:51:12;;;;;;;;;;;;;;;24.89;30.30;97936.38;5061001;28;20036;-80
2022/10/03 08:53:38;;;;;;;;;;;;;;;24.22;31.72;97940.13;5060857;28;19920;-81
2022/10/03 08:56:07;;;;;;;;;;;;;;;23.63;32.67;97937.47;5063799;28;19924;-82
2022/10/03 08:59:02;;;;;;;;;;;;;;;24.00;31.95;97940.63;5063047;28;20015;-82
2022/10/03 09:01:44;;;;;;;;;;;;;;;24.27;31.44;97948.03;5052322;28;19917;-82
2022/10/03 09:04:16;;;;;;;;;;;;;;;25.33;29.97;97940.34;5073380;28;19961;-82
2022/10/03 09:06:49;;;;;;;;;;;;;;;25.40;29.90;97948.56;5070788;28;19971;-81
2022/10/03 09:09:21;;;;;;;;;;;;;;;25.23;30.12;97959.09;5045163;28;19970;-83
2022/10/03 09:12:02;;;;;;;;;;;;;;;25.45;30.23;97947.25;5064653;28;20400;-82
2022/10/03 09:14:28;;;;;;;;;;;;;;;24.71;31.40;97952.91;5058985;28;19924;-82
2022/10/03 09:17:01;;;;;;;;;;;;;;;24.95;31.28;97959.88;5060434;28;19935;-82
2022/10/03 09:19:34;;;;;;;;;;;;;;;25.12;31.22;97952.19;5061199;28;20340;-82
2022/10/03 09:22:11;;;;;;;;;;;;;;;25.49;30.80;97959.19;5062526;28;20352;-81
2022/10/03 09:24:55;;;;;;;;;;;;;;;25.58;30.47;97954.47;5059730;28;20301;-81
2022/10/03 09:27:27;;;;;;;;;;;;;;;25.43;30.78;97953.31;5068905;28;19920;-81
2022/10/03 09:30:07;;;;;;;;;;;;;;;25.36;30.41;97933.84;5039835;28;20389;-83
2022/10/03 09:32:52;;;;;;;;;;;;;;;24.89;31.05;97961.66;5068496;28;19955;-81
2022/10/03 09:35:37;;;;;;;;;;;;;;;24.87;31.51;97961.31;5038821;28;19917;-81
2022/10/03 09:38:15;;;;;;;;;;;;;;;25.01;30.66;97954.50;5071051;28;20301;-82
2022/10/03 09:40:53;;;;;;;;;;;;;;;23.84;33.38;97965.03;5074053;28;19942;-82
2022/10/03 09:43:42;;;;;;;;;;;;;;;24.48;32.71;97961.53;5063915;28;19916;-82
2022/10/03 09:46:26;;;;;;;;;;;;;;;24.94;32.08;97974.38;5070063;28;20281;-82
2022/10/03 09:49:21;;;;;;;;;;;;;;;25.72;31.66;97961.72;5069904;28;19916;-82
2022/10/03 09:51:56;;;;;;;;;;;;;;;25.53;30.79;97951.44;5073342;28;20332;-82
2022/10/03 09:54:42;;;;;;;;;;;;;;;25.95;31.00;97950.91;5072347;28;19929;-81
2022/10/03 09:57:26;;;;;;;;;;;;;;;25.58;30.85;97962.91;5073611;28;19919;-80
2022/10/03 10:00:10;;;;;;;;;;;;;;;26.17;30.47;97962.31;5074135;28;19912;-80
2022/10/03 10:02:42;;;;;;;;;;;;;;;26.62;29.45;97967.66;5071247;28;19912;-79
2022/10/03 10:05:27;;;;;;;;;;;;;;;25.73;30.02;97961.25;5040720;28;19923;-79
2022/10/03 10:07:53;;;;;;;;;;;;;;;24.83;31.91;97976.69;5070131;28;19924;-79
2022/10/03 10:10:38;;;;;;;;;;;;;;;24.48;32.33;97969.94;5073473;28;20008;-81
2022/10/03 10:13:14;;;;;;;;;;;;;;;25.26;31.21;97969.44;5067876;28;19924;-80
2022/10/03 10:16:02;;;;;;;;;;;;;;;26.05;30.29;97958.22;5073456;28;19916;-81
2022/10/03 10:18:39;;;;;;;;;;;;;;;25.56;31.47;97958.97;5071865;28;20014;-80
2022/10/03 10:21:11;;;;;;;;;;;;;;;25.06;31.55;97943.53;5065368;28;19917;-80
2022/10/03 10:23:45;;;;;;;;;;;;;;;25.93;30.70;97959.00;5068317;28;19920;-80
2022/10/03 10:26:28;;;;;;;;;;;;;;;25.26;31.12;97963.03;5055091;28;19919;-80
2022/10/03 10:28:54;;;;;;;;;;;;;;;25.53;30.80;97951.44;5054253;28;20288;-81
2022/10/03 10:31:35;;;;;;;;;;;;;;;23.91;32.99;97950.84;5064992;28;19920;-79
2022/10/03 10:34:34;;;;;;;;;;;;;;;23.84;33.86;97951.81;5065314;28;19913;-80
2022/10/03 10:37:31;;;;;;;;;;;;;;;23.49;34.13;97955.41;5023798;28;19921;-80
2022/10/03 10:40:26;;;;;;;;;;;;;;;23.60;34.11;97964.34;5064290;28;19922;-80
2022/10/03 10:43:10;;;;;;;;;;;;;;;24.15;32.93;97955.13;5052906;28;20001;-79
2022/10/03 10:45:40;;;;;;;;;;;;;;;24.43;31.94;97957.22;5060589;28;19913;-79
2022/10/03 10:48:16;;;;;;;;;;;;;;;24.54;32.35;97957.75;5053460;28;19915;-79
2022/10/03 10:50:54;;;;;;;;;;;;;;;25.47;31.00;97951.19;5038762;28;19916;-80
2022/10/03 10:53:56;;;;;;;;;;;;;;;25.77;30.02;97950.69;5073462;28;19908;-79
2022/10/03 10:56:54;;;;;;;;;;;;;;;25.24;30.73;97959.88;5009312;28;19913;-79
2022/10/03 10:59:38;;;;;;;;;;;;;;;24.49;32.52;97960.28;5019809;28;19909;-79
2022/10/03 11:02:23;;;;;;;;;;;;;;;25.16;31.79;97964.91;5070170;28;20004;-80
2022/10/03 11:04:56;;;;;;;;;;;;;;;23.87;33.06;97970.56;5056939;28;20024;-80
2022/10/03 11:07:41;;;;;;;;;;;;;;;25.06;31.83;97968.81;5062921;28;20300;-80
2022/10/03 11:10:08;;;;;;;;;;;;;;;25.37;31.06;97969.91;5076668;28;20011;-81
2022/10/03 11:13:01;;;;;;;;;;;;;;;25.04;31.60;97967.69;5061014;28;19920;-81
2022/10/03 11:15:34;;;;;;;;;;;;;;;25.29;31.25;97979.00;5056810;28;19920;-82
2022/10/03 11:18:19;;;;;;;;;;;;;;;25.20;31.52;97971.22;5065183;28;20022;-83
2022/10/03 11:20:48;;;;;;;;;;;;;;;24.84;32.60;97978.25;5068329;28;19942;-83
2022/10/03 11:23:26;;;;;;;;;;;;;;;24.79;31.87;97981.59;5048909;28;19925;-82
2022/10/03 11:26:08;;;;;;;;;;;;;;;24.40;33.05;97985.38;5067865;28;19924;-82
2022/10/03 11:28:53;;;;;;;;;;;;;;;24.54;32.73;97988.63;5070671;28;19920;-81
2022/10/03 11:31:38;;;;;;;;;;;;;;;24.35;33.25;97985.88;5053718;28;19920;-81
2022/10/03 11:34:22;;;;;;;;;;;;;;;25.03;32.12;97991.38;5072368;28;19920;-82
2022/10/03 11:37:01;;;;;;;;;;;;;;;24.76;32.48;97988.06;5070716;28;19924;-81
2022/10/03 11:39:48;;;;;;;;;;;;;;;24.67;32.60;97994.28;5060699;28;19919;-82
2022/10/03 11:42:32;;;;;;;;;;;;;;;23.74;34.23;97991.28;5055563;28;19927;-82
2022/10/03 11:45:03;;;;;;;;;;;;;;;24.07;33.66;97995.78;5075457;28;20373;-82
2022/10/03 11:47:38;;;;;;;;;;;;;;;24.54;32.66;97985.81;5070322;28;19913;-83
2022/10/03 11:50:21;;;;;;;;;;;;;;;25.08;31.99;97999.28;5056729;28;19972;-83
2022/10/03 11:52:57;;;;;;;;;;;;;;;25.32;31.27;97995.75;5074697;28;19973;-82
2022/10/03 11:55:23;;;;;;;;;;;;;;;24.01;34.04;97998.25;5065861;28;20085;-82
2022/10/03 11:58:03;;;;;;;;;;;;;;;23.37;35.31;97998.06;5066697;28;20653;-82
2022/10/03 12:00:32;;;;;;;;;;;;;;;24.23;33.58;97997.81;5066139;28;19956;-83
2022/10/03 12:03:01;;;;;;;;;;;;;;;24.20;33.24;97993.84;5065879;28;19966;-82
2022/10/03 12:05:47;;;;;;;;;;;;;;;24.01;33.31;97995.47;5063999;28;19970;-81
2022/10/03 12:11:13;;;;;;;;;;;;;;;25.30;31.28;98009.47;5068460;28;19923;-83
2022/10/03 12:13:48;;;;;;;;;;;;;;;25.35;30.89;98014.56;5068563;28;19925;-82
2022/10/03 12:16:24;;;;;;;;;;;;;;;24.21;33.13;98015.09;5071453;28;19917;-82
2022/10/03 12:18:53;;;;;;;;;;;;;;;23.69;33.98;98015.00;5032072;28;19936;-81
2022/10/03 12:21:49;;;;;;;;;;;;;;;24.20;33.20;98019.09;5064345;28;20030;-82
2022/10/03 12:24:25;;;;;;;;;;;;;;;24.85;31.98;98002.31;5047124;28;19923;-83
2022/10/03 12:26:54;;;;;;;;;;;;;;;24.22;33.09;98010.25;5064658;28;19963;-82
2022/10/03 12:29:23;;;;;;;;;;;;;;;24.42;32.96;98013.78;5064570;28;20289;-82
2022/10/03 12:31:59;;;;;;;;;;;;;;;24.46;32.71;98020.88;5044032;28;20293;-81
2022/10/03 12:34:28;;;;;;;;;;;;;;;24.36;33.37;98029.56;5067302;28;19948;-81
2022/10/03 12:37:22;;;;;;;;;;;;;;;24.53;32.92;98022.72;5046414;28;20389;-81
2022/10/03 12:39:51;;;;;;;;;;;;;;;24.94;32.55;98024.94;5069001;28;19916;-81
2022/10/03 12:42:25;;;;;;;;;;;;;;;24.80;32.41;98030.91;5073135;28;19931;-81
2022/10/03 12:45:13;;;;;;;;;;;;;;;24.07;33.50;98025.84;5070025;28;19920;-82
2022/10/03 12:47:39;;;;;;;;;;;;;;;24.38;33.14;98036.34;5043860;28;19916;-81
2022/10/03 12:50:14;;;;;;;;;;;;;;;24.61;32.67;98026.94;5065558;28;20444;-81
2022/10/03 12:52:47;;;;;;;;;;;;;;;24.56;33.09;98033.88;5062615;28;19944;-82
2022/10/03 12:55:25;;;;;;;;;;;;;;;25.21;31.82;98043.03;5061205;28;19924;-81
2022/10/03 12:57:54;;;;;;;;;;;;;;;24.72;32.52;98033.06;5065343;28;19917;-81
2022/10/03 13:00:21;;;;;;;;;;;;;;;25.94;30.97;98035.75;5060112;28;19916;-82
2022/10/03 13:03:01;;;;;;;;;;;;;;;25.19;32.24;98051.13;5063199;28;20267;-81
2022/10/03 13:05:52;;;;;;;;;;;;;;;26.29;30.53;98045.16;5068116;28;20285;-81
2022/10/03 13:08:41;;;;;;;;;;;;;;;25.56;30.77;98049.72;5070089;28;19936;-81
2022/10/03 13:11:07;;;;;;;;;;;;;;;24.84;32.29;98043.63;5056696;28;19940;-82
2022/10/03 13:13:52;;;;;;;;;;;;;;;24.46;33.03;98045.34;5062936;28;20381;-81
2022/10/03 13:16:21;;;;;;;;;;;;;;;25.02;32.32;98038.34;5062504;28;19923;-81
2022/10/03 13:18:50;;;;;;;;;;;;;;;24.92;32.59;98033.00;5060834;28;19924;-81
2022/10/03 13:21:43;;;;;;;;;;;;;;;25.68;31.13;98036.94;5046549;28;19919;-81
2022/10/03 13:24:21;;;;;;;;;;;;;;;25.40;31.44;98036.50;5063142;28;19970;-81
2022/10/03 13:26:53;;;;;;;;;;;;;;;25.70;31.02;98032.44;5062257;28;19931;-81
2022/10/03 13:29:19;;;;;;;;;;;;;;;26.25;30.42;98038.88;5063174;28;19947;-80
2022/10/03 13:32:04;;;;;;;;;;;;;;;25.81;30.52;98032.91;5062037;28;20389;-81
2022/10/03 13:34:32;;;;;;;;;;;;;;;25.87;30.08;98031.16;5065133;28;20332;-81
2022/10/03 13:37:05;;;;;;;;;;;;;;;26.19;29.72;98032.22;5067527;28;20378;-81
2022/10/03 13:39:41;;;;;;;;;;;;;;;25.26;31.65;98036.88;5064084;28;19920;-81